sensor_id;sensor_type;location;lat;lon;timestamp;P1;durP1;ratioP1;P2;durP2;ratioP2
76582;SDS011;65462;52.148;7.940;2022-12-08T00:01:15;13.93;;;8.37;;
76582;SDS011;65462;52.148;7.940;2022-12-08T00:03:42;12.50;;;8.50;;
76582;SDS011;65462;52.148;7.940;2022-12-08T00:06:18;12.23;;;8.37;;
76582;SDS011;65462;52.148;7.940;2022-12-08T00:09:09;15.00;;;8.60;;
76582;SDS011;65462;52.148;7.940;2022-12-08T00:11:46;12.43;;;7.97;;
76582;SDS011;65462;52.148;7.940;2022-12-08T00:14:23;11.80;;;8.00;;
76582;SDS011;65462;52.148;7.940;2022-12-08T00:16:56;11.73;;;7.90;;
76582;SDS011;65462;52.148;7.940;2022-12-08T00:19:22;12.17;;;8.37;;
76582;SDS011;65462;52.148;7.940;2022-12-08T00:21:48;10.60;;;8.00;;
76582;SDS011;65462;52.148;7.940;2022-12-08T00:24:14;11.83;;;7.90;;
76582;SDS011;65462;52.148;7.940;2022-12-08T00:26:39;12.73;;;7.50;;
76582;SDS011;65462;52.148;7.940;2022-12-08T00:29:04;11.93;;;8.17;;
76582;SDS011;65462;52.148;7.940;2022-12-08T00:31:29;12.00;;;8.13;;
76582;SDS011;65462;52.148;7.940;2022-12-08T00:33:55;11.40;;;7.27;;
76582;SDS011;65462;52.148;7.940;2022-12-08T00:36:20;11.63;;;7.50;;
76582;SDS011;65462;52.148;7.940;2022-12-08T00:38:46;12.83;;;8.20;;
76582;SDS011;65462;52.148;7.940;2022-12-08T00:41:16;13.77;;;7.90;;
76582;SDS011;65462;52.148;7.940;2022-12-08T00:43:43;11.47;;;7.73;;
76582;SDS011;65462;52.148;7.940;2022-12-08T00:46:09;13.23;;;7.70;;
76582;SDS011;65462;52.148;7.940;2022-12-08T00:48:34;12.63;;;7.67;;
76582;SDS011;65462;52.148;7.940;2022-12-08T00:50:59;10.37;;;7.60;;
76582;SDS011;65462;52.148;7.940;2022-12-08T00:53:25;11.53;;;8.10;;
76582;SDS011;65462;52.148;7.940;2022-12-08T00:55:50;11.90;;;7.83;;
76582;SDS011;65462;52.148;7.940;2022-12-08T00:58:15;11.97;;;8.17;;
76582;SDS011;65462;52.148;7.940;2022-12-08T01:00:41;11.87;;;7.97;;
76582;SDS011;65462;52.148;7.940;2022-12-08T01:03:10;11.73;;;7.93;;
76582;SDS011;65462;52.148;7.940;2022-12-08T01:05:35;10.37;;;7.20;;
76582;SDS011;65462;52.148;7.940;2022-12-08T01:08:01;10.57;;;7.73;;
76582;SDS011;65462;52.148;7.940;2022-12-08T01:10:29;13.40;;;7.90;;
76582;SDS011;65462;52.148;7.940;2022-12-08T01:12:54;11.77;;;7.90;;
76582;SDS011;65462;52.148;7.940;2022-12-08T01:15:20;10.33;;;7.33;;
76582;SDS011;65462;52.148;7.940;2022-12-08T01:17:45;11.60;;;7.77;;
76582;SDS011;65462;52.148;7.940;2022-12-08T01:20:10;11.57;;;8.27;;
76582;SDS011;65462;52.148;7.940;2022-12-08T01:22:35;10.87;;;8.00;;
76582;SDS011;65462;52.148;7.940;2022-12-08T01:25:01;10.60;;;7.50;;
76582;SDS011;65462;52.148;7.940;2022-12-08T01:27:26;12.53;;;8.10;;
76582;SDS011;65462;52.148;7.940;2022-12-08T01:29:52;12.40;;;8.10;;
76582;SDS011;65462;52.148;7.940;2022-12-08T01:32:17;12.50;;;8.33;;
76582;SDS011;65462;52.148;7.940;2022-12-08T01:34:42;11.23;;;8.30;;
76582;SDS011;65462;52.148;7.940;2022-12-08T01:37:07;11.47;;;8.47;;
76582;SDS011;65462;52.148;7.940;2022-12-08T01:39:33;13.83;;;8.60;;
76582;SDS011;65462;52.148;7.940;2022-12-08T01:41:59;14.07;;;8.47;;
76582;SDS011;65462;52.148;7.940;2022-12-08T01:46:49;13.50;;;7.80;;
76582;SDS011;65462;52.148;7.940;2022-12-08T01:49:18;12.60;;;7.90;;
76582;SDS011;65462;52.148;7.940;2022-12-08T01:54:13;12.70;;;8.53;;
76582;SDS011;65462;52.148;7.940;2022-12-08T01:56:40;14.17;;;8.37;;
76582;SDS011;65462;52.148;7.940;2022-12-08T01:59:12;15.03;;;9.10;;
76582;SDS011;65462;52.148;7.940;2022-12-08T02:01:37;14.50;;;9.67;;
76582;SDS011;65462;52.148;7.940;2022-12-08T02:04:03;16.73;;;10.23;;
76582;SDS011;65462;52.148;7.940;2022-12-08T02:06:29;15.40;;;9.97;;
76582;SDS011;65462;52.148;7.940;2022-12-08T02:09:00;19.23;;;11.43;;
76582;SDS011;65462;52.148;7.940;2022-12-08T02:11:27;15.70;;;10.93;;
76582;SDS011;65462;52.148;7.940;2022-12-08T02:13:53;17.40;;;10.30;;
76582;SDS011;65462;52.148;7.940;2022-12-08T02:16:25;19.90;;;11.43;;
76582;SDS011;65462;52.148;7.940;2022-12-08T02:30:07;20.10;;;11.50;;
76582;SDS011;65462;52.148;7.940;2022-12-08T02:38:34;19.03;;;11.53;;
76582;SDS011;65462;52.148;7.940;2022-12-08T02:41:08;18.07;;;12.20;;
76582;SDS011;65462;52.148;7.940;2022-12-08T02:43:47;18.23;;;12.47;;
76582;SDS011;65462;52.148;7.940;2022-12-08T02:46:26;16.73;;;12.23;;
76582;SDS011;65462;52.148;7.940;2022-12-08T02:48:55;19.20;;;12.27;;
76582;SDS011;65462;52.148;7.940;2022-12-08T02:51:21;18.00;;;12.37;;
76582;SDS011;65462;52.148;7.940;2022-12-08T02:53:47;16.90;;;12.20;;
76582;SDS011;65462;52.148;7.940;2022-12-08T02:58:47;17.00;;;11.77;;
76582;SDS011;65462;52.148;7.940;2022-12-08T03:01:52;16.97;;;11.87;;
76582;SDS011;65462;52.148;7.940;2022-12-08T03:09:53;16.47;;;11.50;;
76582;SDS011;65462;52.148;7.940;2022-12-08T03:12:25;16.40;;;10.87;;
76582;SDS011;65462;52.148;7.940;2022-12-08T03:14:55;17.63;;;12.03;;
76582;SDS011;65462;52.148;7.940;2022-12-08T03:17:24;17.97;;;11.00;;
76582;SDS011;65462;52.148;7.940;2022-12-08T03:19:53;18.17;;;12.50;;
76582;SDS011;65462;52.148;7.940;2022-12-08T03:22:21;16.97;;;11.93;;
76582;SDS011;65462;52.148;7.940;2022-12-08T03:24:49;18.27;;;11.43;;
76582;SDS011;65462;52.148;7.940;2022-12-08T03:27:19;16.63;;;10.83;;
76582;SDS011;65462;52.148;7.940;2022-12-08T03:29:46;17.67;;;11.30;;
76582;SDS011;65462;52.148;7.940;2022-12-08T03:35:10;18.30;;;11.60;;
76582;SDS011;65462;52.148;7.940;2022-12-08T03:37:38;14.20;;;10.63;;
76582;SDS011;65462;52.148;7.940;2022-12-08T03:40:04;17.37;;;11.33;;
76582;SDS011;65462;52.148;7.940;2022-12-08T03:42:31;17.30;;;10.90;;
76582;SDS011;65462;52.148;7.940;2022-12-08T03:44:57;16.13;;;10.87;;
76582;SDS011;65462;52.148;7.940;2022-12-08T03:47:22;18.03;;;10.77;;
76582;SDS011;65462;52.148;7.940;2022-12-08T03:49:47;16.17;;;10.83;;
76582;SDS011;65462;52.148;7.940;2022-12-08T03:52:13;15.37;;;10.63;;
76582;SDS011;65462;52.148;7.940;2022-12-08T03:54:38;15.23;;;11.10;;
76582;SDS011;65462;52.148;7.940;2022-12-08T03:57:03;18.07;;;11.27;;
76582;SDS011;65462;52.148;7.940;2022-12-08T03:59:28;15.90;;;10.53;;
76582;SDS011;65462;52.148;7.940;2022-12-08T04:01:54;19.23;;;10.83;;
76582;SDS011;65462;52.148;7.940;2022-12-08T04:04:19;16.23;;;10.80;;
76582;SDS011;65462;52.148;7.940;2022-12-08T04:06:44;15.17;;;10.60;;
76582;SDS011;65462;52.148;7.940;2022-12-08T04:09:10;19.50;;;11.03;;
76582;SDS011;65462;52.148;7.940;2022-12-08T04:11:35;16.13;;;10.27;;
76582;SDS011;65462;52.148;7.940;2022-12-08T04:14:00;17.63;;;11.13;;
76582;SDS011;65462;52.148;7.940;2022-12-08T04:16:25;16.73;;;11.37;;
76582;SDS011;65462;52.148;7.940;2022-12-08T04:18:52;18.13;;;11.17;;
76582;SDS011;65462;52.148;7.940;2022-12-08T04:21:18;19.23;;;12.33;;
76582;SDS011;65462;52.148;7.940;2022-12-08T04:23:43;12.97;;;10.40;;
76582;SDS011;65462;52.148;7.940;2022-12-08T04:26:09;16.67;;;10.73;;
76582;SDS011;65462;52.148;7.940;2022-12-08T04:28:35;18.73;;;12.37;;
76582;SDS011;65462;52.148;7.940;2022-12-08T04:31:01;16.97;;;11.23;;
76582;SDS011;65462;52.148;7.940;2022-12-08T04:33:27;14.83;;;10.70;;
76582;SDS011;65462;52.148;7.940;2022-12-08T04:35:52;15.70;;;10.83;;
76582;SDS011;65462;52.148;7.940;2022-12-08T04:38:17;15.00;;;10.37;;
76582;SDS011;65462;52.148;7.940;2022-12-08T04:40:43;16.27;;;11.07;;
76582;SDS011;65462;52.148;7.940;2022-12-08T04:43:08;17.03;;;10.70;;
76582;SDS011;65462;52.148;7.940;2022-12-08T04:45:34;15.73;;;11.17;;
76582;SDS011;65462;52.148;7.940;2022-12-08T04:47:59;14.90;;;10.20;;
76582;SDS011;65462;52.148;7.940;2022-12-08T04:50:25;17.47;;;10.97;;
76582;SDS011;65462;52.148;7.940;2022-12-08T04:52:51;18.07;;;11.23;;
76582;SDS011;65462;52.148;7.940;2022-12-08T04:55:16;17.83;;;11.17;;
76582;SDS011;65462;52.148;7.940;2022-12-08T04:57:41;16.33;;;11.17;;
76582;SDS011;65462;52.148;7.940;2022-12-08T05:00:07;14.23;;;10.27;;
76582;SDS011;65462;52.148;7.940;2022-12-08T05:02:33;17.77;;;11.67;;
76582;SDS011;65462;52.148;7.940;2022-12-08T05:04:58;18.20;;;11.80;;
76582;SDS011;65462;52.148;7.940;2022-12-08T05:07:24;18.50;;;10.87;;
76582;SDS011;65462;52.148;7.940;2022-12-08T05:09:49;15.30;;;10.40;;
76582;SDS011;65462;52.148;7.940;2022-12-08T05:12:14;16.37;;;10.80;;
76582;SDS011;65462;52.148;7.940;2022-12-08T05:14:40;14.30;;;10.17;;
76582;SDS011;65462;52.148;7.940;2022-12-08T05:17:05;15.97;;;11.00;;
76582;SDS011;65462;52.148;7.940;2022-12-08T05:19:30;15.23;;;10.60;;
76582;SDS011;65462;52.148;7.940;2022-12-08T05:21:55;15.80;;;10.73;;
76582;SDS011;65462;52.148;7.940;2022-12-08T05:24:21;14.93;;;9.73;;
76582;SDS011;65462;52.148;7.940;2022-12-08T05:26:46;13.33;;;9.77;;
76582;SDS011;65462;52.148;7.940;2022-12-08T05:29:11;16.00;;;10.13;;
76582;SDS011;65462;52.148;7.940;2022-12-08T05:31:36;14.53;;;9.67;;
76582;SDS011;65462;52.148;7.940;2022-12-08T05:34:02;14.60;;;10.27;;
76582;SDS011;65462;52.148;7.940;2022-12-08T05:36:27;15.27;;;10.97;;
76582;SDS011;65462;52.148;7.940;2022-12-08T05:38:54;15.73;;;10.90;;
76582;SDS011;65462;52.148;7.940;2022-12-08T05:41:21;14.43;;;9.90;;
76582;SDS011;65462;52.148;7.940;2022-12-08T05:43:47;18.40;;;11.43;;
76582;SDS011;65462;52.148;7.940;2022-12-08T05:46:12;17.93;;;11.10;;
76582;SDS011;65462;52.148;7.940;2022-12-08T05:48:38;16.43;;;11.30;;
76582;SDS011;65462;52.148;7.940;2022-12-08T05:51:04;17.57;;;11.10;;
76582;SDS011;65462;52.148;7.940;2022-12-08T05:53:36;17.50;;;11.27;;
76582;SDS011;65462;52.148;7.940;2022-12-08T05:56:01;18.90;;;12.13;;
76582;SDS011;65462;52.148;7.940;2022-12-08T05:58:26;19.97;;;12.23;;
76582;SDS011;65462;52.148;7.940;2022-12-08T06:00:51;17.70;;;11.37;;
76582;SDS011;65462;52.148;7.940;2022-12-08T06:03:17;16.80;;;11.37;;
76582;SDS011;65462;52.148;7.940;2022-12-08T06:05:43;16.83;;;11.57;;
76582;SDS011;65462;52.148;7.940;2022-12-08T06:08:09;18.63;;;11.57;;
76582;SDS011;65462;52.148;7.940;2022-12-08T06:10:42;17.10;;;10.70;;
76582;SDS011;65462;52.148;7.940;2022-12-08T06:13:08;17.07;;;11.60;;
76582;SDS011;65462;52.148;7.940;2022-12-08T06:15:34;16.73;;;11.50;;
76582;SDS011;65462;52.148;7.940;2022-12-08T06:18:00;17.73;;;11.33;;
76582;SDS011;65462;52.148;7.940;2022-12-08T06:20:25;15.83;;;10.93;;
76582;SDS011;65462;52.148;7.940;2022-12-08T06:22:50;16.80;;;10.83;;
76582;SDS011;65462;52.148;7.940;2022-12-08T06:25:16;16.73;;;10.23;;
76582;SDS011;65462;52.148;7.940;2022-12-08T06:27:41;15.40;;;9.77;;
76582;SDS011;65462;52.148;7.940;2022-12-08T06:30:06;12.87;;;8.93;;
76582;SDS011;65462;52.148;7.940;2022-12-08T06:32:32;13.17;;;8.63;;
76582;SDS011;65462;52.148;7.940;2022-12-08T06:34:57;13.27;;;9.07;;
76582;SDS011;65462;52.148;7.940;2022-12-08T06:37:22;12.13;;;8.73;;
76582;SDS011;65462;52.148;7.940;2022-12-08T06:39:48;12.63;;;8.73;;
76582;SDS011;65462;52.148;7.940;2022-12-08T06:42:13;13.93;;;9.63;;
76582;SDS011;65462;52.148;7.940;2022-12-08T06:44:57;13.30;;;8.87;;
76582;SDS011;65462;52.148;7.940;2022-12-08T06:47:22;14.23;;;9.20;;
76582;SDS011;65462;52.148;7.940;2022-12-08T06:49:47;15.50;;;9.50;;
76582;SDS011;65462;52.148;7.940;2022-12-08T06:52:13;15.23;;;9.17;;
76582;SDS011;65462;52.148;7.940;2022-12-08T06:54:39;15.27;;;9.37;;
76582;SDS011;65462;52.148;7.940;2022-12-08T06:57:04;15.57;;;9.93;;
76582;SDS011;65462;52.148;7.940;2022-12-08T06:59:29;13.73;;;9.20;;
76582;SDS011;65462;52.148;7.940;2022-12-08T07:01:55;13.73;;;9.63;;
76582;SDS011;65462;52.148;7.940;2022-12-08T07:04:21;16.73;;;10.73;;
76582;SDS011;65462;52.148;7.940;2022-12-08T07:06:46;13.67;;;9.00;;
76582;SDS011;65462;52.148;7.940;2022-12-08T07:09:11;14.97;;;9.63;;
76582;SDS011;65462;52.148;7.940;2022-12-08T07:11:37;15.67;;;9.63;;
76582;SDS011;65462;52.148;7.940;2022-12-08T07:14:03;15.50;;;10.23;;
76582;SDS011;65462;52.148;7.940;2022-12-08T07:16:28;15.97;;;10.27;;
76582;SDS011;65462;52.148;7.940;2022-12-08T07:18:54;17.00;;;9.97;;
76582;SDS011;65462;52.148;7.940;2022-12-08T07:21:19;15.37;;;10.20;;
76582;SDS011;65462;52.148;7.940;2022-12-08T07:23:45;16.50;;;10.50;;
76582;SDS011;65462;52.148;7.940;2022-12-08T07:26:11;14.30;;;9.90;;
76582;SDS011;65462;52.148;7.940;2022-12-08T07:28:39;16.13;;;10.13;;
76582;SDS011;65462;52.148;7.940;2022-12-08T07:31:05;15.90;;;10.00;;
76582;SDS011;65462;52.148;7.940;2022-12-08T07:33:32;16.77;;;10.23;;
76582;SDS011;65462;52.148;7.940;2022-12-08T07:36:02;14.77;;;9.70;;
76582;SDS011;65462;52.148;7.940;2022-12-08T07:38:29;16.63;;;10.20;;
76582;SDS011;65462;52.148;7.940;2022-12-08T07:40:54;16.27;;;9.93;;
76582;SDS011;65462;52.148;7.940;2022-12-08T07:43:20;14.60;;;9.67;;
76582;SDS011;65462;52.148;7.940;2022-12-08T07:45:45;14.13;;;9.87;;
76582;SDS011;65462;52.148;7.940;2022-12-08T07:48:11;16.40;;;9.23;;
76582;SDS011;65462;52.148;7.940;2022-12-08T07:50:36;19.63;;;10.03;;
76582;SDS011;65462;52.148;7.940;2022-12-08T07:53:02;14.70;;;9.53;;
76582;SDS011;65462;52.148;7.940;2022-12-08T07:55:27;14.90;;;10.13;;
76582;SDS011;65462;52.148;7.940;2022-12-08T07:57:52;14.17;;;9.47;;
76582;SDS011;65462;52.148;7.940;2022-12-08T08:00:18;13.43;;;9.37;;
76582;SDS011;65462;52.148;7.940;2022-12-08T08:02:43;15.37;;;9.30;;
76582;SDS011;65462;52.148;7.940;2022-12-08T08:05:09;14.33;;;9.37;;
76582;SDS011;65462;52.148;7.940;2022-12-08T08:07:36;13.97;;;9.30;;
76582;SDS011;65462;52.148;7.940;2022-12-08T08:10:02;13.60;;;8.57;;
76582;SDS011;65462;52.148;7.940;2022-12-08T08:12:29;15.17;;;9.03;;
76582;SDS011;65462;52.148;7.940;2022-12-08T08:14:54;12.67;;;8.33;;
76582;SDS011;65462;52.148;7.940;2022-12-08T08:17:19;13.93;;;9.33;;
76582;SDS011;65462;52.148;7.940;2022-12-08T08:19:45;13.50;;;8.77;;
76582;SDS011;65462;52.148;7.940;2022-12-08T08:22:10;12.07;;;7.90;;
76582;SDS011;65462;52.148;7.940;2022-12-08T08:24:35;13.00;;;8.00;;
76582;SDS011;65462;52.148;7.940;2022-12-08T08:27:01;12.63;;;8.30;;
76582;SDS011;65462;52.148;7.940;2022-12-08T08:29:26;12.63;;;8.20;;
76582;SDS011;65462;52.148;7.940;2022-12-08T08:31:52;11.20;;;8.17;;
76582;SDS011;65462;52.148;7.940;2022-12-08T08:34:17;13.73;;;8.33;;
76582;SDS011;65462;52.148;7.940;2022-12-08T08:36:42;10.03;;;7.27;;
76582;SDS011;65462;52.148;7.940;2022-12-08T08:39:07;14.63;;;8.13;;
76582;SDS011;65462;52.148;7.940;2022-12-08T08:41:33;10.70;;;7.47;;
76582;SDS011;65462;52.148;7.940;2022-12-08T08:43:59;13.63;;;8.67;;
76582;SDS011;65462;52.148;7.940;2022-12-08T08:46:24;10.40;;;7.33;;
76582;SDS011;65462;52.148;7.940;2022-12-08T08:48:49;12.20;;;7.53;;
76582;SDS011;65462;52.148;7.940;2022-12-08T08:51:15;11.60;;;7.93;;
76582;SDS011;65462;52.148;7.940;2022-12-08T08:53:41;11.73;;;8.00;;
76582;SDS011;65462;52.148;7.940;2022-12-08T08:56:10;13.80;;;8.50;;
76582;SDS011;65462;52.148;7.940;2022-12-08T08:58:37;10.53;;;7.67;;
76582;SDS011;65462;52.148;7.940;2022-12-08T09:01:02;10.83;;;7.40;;
76582;SDS011;65462;52.148;7.940;2022-12-08T09:03:27;12.53;;;7.33;;
76582;SDS011;65462;52.148;7.940;2022-12-08T09:05:53;11.87;;;7.93;;
76582;SDS011;65462;52.148;7.940;2022-12-08T09:08:19;10.70;;;7.23;;
76582;SDS011;65462;52.148;7.940;2022-12-08T09:10:44;13.03;;;7.73;;
76582;SDS011;65462;52.148;7.940;2022-12-08T09:13:10;10.20;;;6.97;;
76582;SDS011;65462;52.148;7.940;2022-12-08T09:15:35;9.90;;;6.80;;
76582;SDS011;65462;52.148;7.940;2022-12-08T09:18:01;10.50;;;6.83;;
76582;SDS011;65462;52.148;7.940;2022-12-08T09:20:26;10.33;;;7.60;;
76582;SDS011;65462;52.148;7.940;2022-12-08T09:22:51;9.93;;;6.80;;
76582;SDS011;65462;52.148;7.940;2022-12-08T09:25:17;11.53;;;7.53;;
76582;SDS011;65462;52.148;7.940;2022-12-08T09:27:42;9.70;;;6.73;;
76582;SDS011;65462;52.148;7.940;2022-12-08T09:30:07;10.37;;;7.17;;
76582;SDS011;65462;52.148;7.940;2022-12-08T09:32:33;11.63;;;7.70;;
76582;SDS011;65462;52.148;7.940;2022-12-08T09:34:58;10.70;;;7.23;;
76582;SDS011;65462;52.148;7.940;2022-12-08T09:37:24;10.27;;;6.50;;
76582;SDS011;65462;52.148;7.940;2022-12-08T09:39:49;9.83;;;6.23;;
76582;SDS011;65462;52.148;7.940;2022-12-08T09:42:14;9.93;;;6.37;;
76582;SDS011;65462;52.148;7.940;2022-12-08T09:45:04;9.93;;;6.60;;
76582;SDS011;65462;52.148;7.940;2022-12-08T09:47:53;10.10;;;6.70;;
76582;SDS011;65462;52.148;7.940;2022-12-08T09:50:34;11.67;;;6.53;;
76582;SDS011;65462;52.148;7.940;2022-12-08T09:53:11;10.07;;;6.07;;
76582;SDS011;65462;52.148;7.940;2022-12-08T09:58:26;9.38;;;6.25;;
76582;SDS011;65462;52.148;7.940;2022-12-08T10:00:59;8.90;;;6.23;;
76582;SDS011;65462;52.148;7.940;2022-12-08T10:03:26;9.73;;;6.60;;
76582;SDS011;65462;52.148;7.940;2022-12-08T10:05:55;7.93;;;5.70;;
76582;SDS011;65462;52.148;7.940;2022-12-08T10:08:28;10.35;;;6.18;;
76582;SDS011;65462;52.148;7.940;2022-12-08T10:11:01;9.47;;;4.87;;
76582;SDS011;65462;52.148;7.940;2022-12-08T10:16:41;9.30;;;5.37;;
76582;SDS011;65462;52.148;7.940;2022-12-08T10:19:13;7.77;;;5.03;;
76582;SDS011;65462;52.148;7.940;2022-12-08T10:21:42;7.37;;;5.13;;
76582;SDS011;65462;52.148;7.940;2022-12-08T10:24:12;7.23;;;4.83;;
76582;SDS011;65462;52.148;7.940;2022-12-08T10:26:39;6.23;;;4.43;;
76582;SDS011;65462;52.148;7.940;2022-12-08T10:29:04;6.90;;;5.00;;
76582;SDS011;65462;52.148;7.940;2022-12-08T10:31:31;7.53;;;4.87;;
76582;SDS011;65462;52.148;7.940;2022-12-08T10:33:59;7.30;;;4.63;;
76582;SDS011;65462;52.148;7.940;2022-12-08T10:36:44;7.17;;;4.23;;
76582;SDS011;65462;52.148;7.940;2022-12-08T10:42:30;5.43;;;3.92;;
76582;SDS011;65462;52.148;7.940;2022-12-08T10:47:37;7.47;;;4.87;;
76582;SDS011;65462;52.148;7.940;2022-12-08T10:50:08;6.33;;;3.87;;
76582;SDS011;65462;52.148;7.940;2022-12-08T10:53:10;6.17;;;3.93;;
76582;SDS011;65462;52.148;7.940;2022-12-08T10:55:48;4.90;;;3.28;;
76582;SDS011;65462;52.148;7.940;2022-12-08T11:00:52;6.90;;;3.93;;
76582;SDS011;65462;52.148;7.940;2022-12-08T11:03:29;5.40;;;4.10;;
76582;SDS011;65462;52.148;7.940;2022-12-08T11:05:58;5.73;;;4.07;;
76582;SDS011;65462;52.148;7.940;2022-12-08T11:08:26;5.90;;;4.10;;
76582;SDS011;65462;52.148;7.940;2022-12-08T11:10:52;5.80;;;3.73;;
76582;SDS011;65462;52.148;7.940;2022-12-08T11:13:22;6.60;;;3.90;;
76582;SDS011;65462;52.148;7.940;2022-12-08T11:15:50;5.27;;;3.80;;
76582;SDS011;65462;52.148;7.940;2022-12-08T11:18:21;5.60;;;3.63;;
76582;SDS011;65462;52.148;7.940;2022-12-08T11:21:12;6.10;;;3.50;;
76582;SDS011;65462;52.148;7.940;2022-12-08T11:23:40;4.90;;;3.50;;
76582;SDS011;65462;52.148;7.940;2022-12-08T11:26:11;5.40;;;3.60;;
76582;SDS011;65462;52.148;7.940;2022-12-08T11:29:11;6.67;;;3.70;;
76582;SDS011;65462;52.148;7.940;2022-12-08T11:31:41;5.03;;;3.23;;
76582;SDS011;65462;52.148;7.940;2022-12-08T11:34:12;5.60;;;3.40;;
76582;SDS011;65462;52.148;7.940;2022-12-08T11:36:44;5.77;;;3.63;;
76582;SDS011;65462;52.148;7.940;2022-12-08T11:39:10;6.03;;;3.67;;
76582;SDS011;65462;52.148;7.940;2022-12-08T11:41:38;5.00;;;3.37;;
76582;SDS011;65462;52.148;7.940;2022-12-08T11:49:43;5.40;;;3.60;;
76582;SDS011;65462;52.148;7.940;2022-12-08T11:52:20;5.33;;;3.50;;
76582;SDS011;65462;52.148;7.940;2022-12-08T11:54:51;4.87;;;3.53;;
76582;SDS011;65462;52.148;7.940;2022-12-08T11:57:25;4.80;;;3.27;;
76582;SDS011;65462;52.148;7.940;2022-12-08T11:59:53;5.30;;;3.60;;
76582;SDS011;65462;52.148;7.940;2022-12-08T12:02:23;5.47;;;3.67;;
76582;SDS011;65462;52.148;7.940;2022-12-08T12:04:54;6.03;;;4.00;;
76582;SDS011;65462;52.148;7.940;2022-12-08T12:12:47;6.40;;;4.20;;
76582;SDS011;65462;52.148;7.940;2022-12-08T12:20:52;5.97;;;4.13;;
76582;SDS011;65462;52.148;7.940;2022-12-08T12:26:17;6.37;;;4.33;;
76582;SDS011;65462;52.148;7.940;2022-12-08T12:28:54;6.07;;;4.03;;
76582;SDS011;65462;52.148;7.940;2022-12-08T12:31:38;8.10;;;4.33;;
76582;SDS011;65462;52.148;7.940;2022-12-08T12:34:24;7.50;;;4.00;;
76582;SDS011;65462;52.148;7.940;2022-12-08T12:39:19;6.77;;;4.00;;
76582;SDS011;65462;52.148;7.940;2022-12-08T12:41:51;6.63;;;4.33;;
76582;SDS011;65462;52.148;7.940;2022-12-08T13:02:30;6.23;;;4.00;;
76582;SDS011;65462;52.148;7.940;2022-12-08T13:10:22;7.00;;;4.00;;
76582;SDS011;65462;52.148;7.940;2022-12-08T13:13:01;5.87;;;3.90;;
76582;SDS011;65462;52.148;7.940;2022-12-08T13:15:46;6.93;;;3.90;;
76582;SDS011;65462;52.148;7.940;2022-12-08T13:18:17;5.70;;;3.97;;
76582;SDS011;65462;52.148;7.940;2022-12-08T13:20:46;6.17;;;4.30;;
76582;SDS011;65462;52.148;7.940;2022-12-08T13:23:28;5.73;;;3.67;;
76582;SDS011;65462;52.148;7.940;2022-12-08T13:31:42;5.77;;;3.73;;
76582;SDS011;65462;52.148;7.940;2022-12-08T13:36:42;6.80;;;3.77;;
76582;SDS011;65462;52.148;7.940;2022-12-08T13:39:15;4.90;;;3.33;;
76582;SDS011;65462;52.148;7.940;2022-12-08T13:42:06;5.93;;;3.63;;
76582;SDS011;65462;52.148;7.940;2022-12-08T13:47:41;5.37;;;3.47;;
76582;SDS011;65462;52.148;7.940;2022-12-08T13:50:20;5.10;;;3.28;;
76582;SDS011;65462;52.148;7.940;2022-12-08T13:52:56;6.20;;;3.90;;
76582;SDS011;65462;52.148;7.940;2022-12-08T13:55:26;5.37;;;3.60;;
76582;SDS011;65462;52.148;7.940;2022-12-08T13:57:54;5.33;;;3.73;;
76582;SDS011;65462;52.148;7.940;2022-12-08T14:00:21;5.27;;;3.57;;
76582;SDS011;65462;52.148;7.940;2022-12-08T14:02:48;5.70;;;4.03;;
76582;SDS011;65462;52.148;7.940;2022-12-08T14:05:16;5.53;;;3.60;;
76582;SDS011;65462;52.148;7.940;2022-12-08T14:07:44;6.37;;;4.00;;
76582;SDS011;65462;52.148;7.940;2022-12-08T14:10:18;6.83;;;3.93;;
76582;SDS011;65462;52.148;7.940;2022-12-08T14:12:45;4.87;;;3.33;;
76582;SDS011;65462;52.148;7.940;2022-12-08T14:15:21;6.47;;;4.07;;
76582;SDS011;65462;52.148;7.940;2022-12-08T14:17:51;5.33;;;3.37;;
76582;SDS011;65462;52.148;7.940;2022-12-08T14:20:30;6.57;;;3.50;;
76582;SDS011;65462;52.148;7.940;2022-12-08T14:22:59;5.80;;;3.70;;
76582;SDS011;65462;52.148;7.940;2022-12-08T14:25:31;4.85;;;2.88;;
76582;SDS011;65462;52.148;7.940;2022-12-08T14:28:00;5.57;;;3.63;;
76582;SDS011;65462;52.148;7.940;2022-12-08T14:30:29;5.30;;;3.37;;
76582;SDS011;65462;52.148;7.940;2022-12-08T14:32:56;5.43;;;3.30;;
76582;SDS011;65462;52.148;7.940;2022-12-08T14:35:24;7.00;;;3.67;;
76582;SDS011;65462;52.148;7.940;2022-12-08T14:37:58;4.88;;;3.17;;
76582;SDS011;65462;52.148;7.940;2022-12-08T14:53:38;5.73;;;3.60;;
76582;SDS011;65462;52.148;7.940;2022-12-08T14:56:19;5.40;;;3.40;;
76582;SDS011;65462;52.148;7.940;2022-12-08T14:58:49;7.27;;;3.60;;
76582;SDS011;65462;52.148;7.940;2022-12-08T15:01:27;5.63;;;3.57;;
76582;SDS011;65462;52.148;7.940;2022-12-08T15:03:57;5.93;;;3.60;;
76582;SDS011;65462;52.148;7.940;2022-12-08T15:06:24;6.00;;;4.00;;
76582;SDS011;65462;52.148;7.940;2022-12-08T15:08:54;5.00;;;3.07;;
76582;SDS011;65462;52.148;7.940;2022-12-08T15:13:49;6.13;;;3.70;;
76582;SDS011;65462;52.148;7.940;2022-12-08T15:21:42;5.10;;;3.37;;
76582;SDS011;65462;52.148;7.940;2022-12-08T15:24:10;5.37;;;3.20;;
76582;SDS011;65462;52.148;7.940;2022-12-08T15:26:48;7.10;;;3.67;;
76582;SDS011;65462;52.148;7.940;2022-12-08T15:29:18;4.97;;;3.40;;
76582;SDS011;65462;52.148;7.940;2022-12-08T15:31:49;6.90;;;3.43;;
76582;SDS011;65462;52.148;7.940;2022-12-08T15:34:16;5.50;;;3.40;;
76582;SDS011;65462;52.148;7.940;2022-12-08T15:36:42;5.50;;;3.47;;
76582;SDS011;65462;52.148;7.940;2022-12-08T15:39:16;5.43;;;3.30;;
76582;SDS011;65462;52.148;7.940;2022-12-08T15:41:45;7.87;;;3.53;;
76582;SDS011;65462;52.148;7.940;2022-12-08T15:44:10;5.17;;;3.47;;
76582;SDS011;65462;52.148;7.940;2022-12-08T15:46:35;4.80;;;3.00;;
76582;SDS011;65462;52.148;7.940;2022-12-08T15:49:01;4.97;;;3.00;;
76582;SDS011;65462;52.148;7.940;2022-12-08T15:51:33;4.83;;;3.37;;
76582;SDS011;65462;52.148;7.940;2022-12-08T15:54:01;5.13;;;3.20;;
76582;SDS011;65462;52.148;7.940;2022-12-08T15:56:27;5.57;;;3.63;;
76582;SDS011;65462;52.148;7.940;2022-12-08T15:58:53;6.23;;;3.50;;
76582;SDS011;65462;52.148;7.940;2022-12-08T16:01:18;5.33;;;3.03;;
76582;SDS011;65462;52.148;7.940;2022-12-08T16:03:43;6.03;;;3.20;;
76582;SDS011;65462;52.148;7.940;2022-12-08T16:06:11;5.23;;;3.17;;
76582;SDS011;65462;52.148;7.940;2022-12-08T16:08:41;5.47;;;3.47;;
76582;SDS011;65462;52.148;7.940;2022-12-08T16:11:06;5.00;;;3.07;;
76582;SDS011;65462;52.148;7.940;2022-12-08T16:13:50;4.97;;;3.20;;
76582;SDS011;65462;52.148;7.940;2022-12-08T16:16:15;4.77;;;3.43;;
76582;SDS011;65462;52.148;7.940;2022-12-08T16:18:45;5.60;;;3.20;;
76582;SDS011;65462;52.148;7.940;2022-12-08T16:21:12;5.47;;;3.43;;
76582;SDS011;65462;52.148;7.940;2022-12-08T16:23:37;7.30;;;3.90;;
76582;SDS011;65462;52.148;7.940;2022-12-08T16:26:03;6.33;;;3.50;;
76582;SDS011;65462;52.148;7.940;2022-12-08T16:28:28;5.80;;;3.17;;
76582;SDS011;65462;52.148;7.940;2022-12-08T16:30:53;5.40;;;3.10;;
76582;SDS011;65462;52.148;7.940;2022-12-08T16:33:18;5.43;;;3.57;;
76582;SDS011;65462;52.148;7.940;2022-12-08T16:35:45;6.67;;;3.90;;
76582;SDS011;65462;52.148;7.940;2022-12-08T16:38:13;6.90;;;4.23;;
76582;SDS011;65462;52.148;7.940;2022-12-08T16:40:42;6.70;;;4.10;;
76582;SDS011;65462;52.148;7.940;2022-12-08T16:43:27;7.03;;;4.60;;
76582;SDS011;65462;52.148;7.940;2022-12-08T16:45:53;6.37;;;4.20;;
76582;SDS011;65462;52.148;7.940;2022-12-08T16:48:18;6.10;;;4.27;;